ケアンズ の空港の天気 - METARとTAF

ケアンズ国際空港 ( YBCS / CNS ) - オーストラリア クイーンズランド州ケアンズ
飛行場実況気象(Metar)
観測時間04/27 14:30 AEST (04/27 04:30 UTC)
風向・風速南東 8m/s
視程10km以上
天気現象
少しの雲 雲底高度 1220m
全天の8割程度の雲 雲底高度 9140m
気温30℃
湿度38%
気圧1012hPa
METARYBCS 270430Z 13015KT 9999 FEW040 BKN300 30/14 Q1012 NOSIG
過去の天気等 Google飛行場航空写真 Wunderground天気予報

過去48時間のMETAR

飛行場予報(TAF)
発表時間: 4/27 08:50 AEST (4/26 22:50 UTC)
予報対象時間: 27日10時 AEST ~ 28日10時 AEST
風向・風速不定 3m/s
視程10km以上
なし
27日11時 AEST から
風向・風速東南東 6m/s
視程10km以上
少しの雲 雲底高度 1,070m
27日18時 AEST から
風向・風速南南東 3m/s
視程10km以上
少しの雲 雲底高度 760m
TAF YBCS 262250Z 2700/2724 VRB05KT CAVOK
FM270100 12012KT 9999 FEW035
FM270800 16006KT 9999 FEW025